Time;durP1;ratioP1;P1;durP2;ratioP2;P2;SDS_P1;SDS_P2;PMS_P1;PMS_P2;Temp;Humidity;BMP_temperature;BMP_pressure;BME280_temperature;BME280_humidity;BME280_pressure;Samples;Min_cycle;Max_cycle;Signal;HPM_P1;HPM_P2
2022/06/24 00:01:15;;;;;;;;;5.33;5.00;;;;;24.39;49.60;100229.47;5019574;28;45452;-71
2022/06/24 00:03:44;;;;;;;;;6.67;5.00;;;;;25.03;49.81;100343.31;5020136;28;45235;-71
2022/06/24 00:06:15;;;;;;;;;4.33;4.33;;;;;24.78;49.99;100303.75;5022692;28;45509;-72
2022/06/24 00:08:51;;;;;;;;;3.67;3.67;;;;;24.60;50.48;100279.53;5008577;28;45767;-73
2022/06/24 00:11:24;;;;;;;;;4.00;4.00;;;;;24.42;50.80;100263.47;5034728;28;45700;-71
2022/06/24 00:13:50;;;;;;;;;4.33;4.33;;;;;24.98;51.01;100357.63;5034821;28;45586;-72
2022/06/24 00:16:15;;;;;;;;;6.67;6.67;;;;;24.97;51.11;100364.16;5019847;28;45288;-72
2022/06/24 00:18:41;;;;;;;;;5.00;5.00;;;;;24.81;51.26;100346.75;5019148;28;45656;-72
2022/06/24 00:21:13;;;;;;;;;4.00;4.00;;;;;24.65;51.33;100322.31;5019477;28;45407;-72
2022/06/24 00:23:40;;;;;;;;;4.33;4.33;;;;;24.86;51.66;100359.63;5018168;28;45234;-70
2022/06/24 00:26:06;;;;;;;;;4.00;4.00;;;;;24.84;51.45;100372.66;5019566;28;45390;-71
2022/06/24 00:28:32;;;;;;;;;5.00;4.00;;;;;24.86;51.57;100365.06;5019133;28;45567;-72
2022/06/24 00:30:57;;;;;;;;;3.00;3.00;;;;;24.64;51.52;100320.66;5019117;28;45377;-69
2022/06/24 00:33:25;;;;;;;;;5.00;5.00;;;;;24.89;50.76;100353.69;5019166;28;45518;-72
2022/06/24 00:35:51;;;;;;;;;3.00;3.00;;;;;24.87;51.17;100367.53;5020204;28;45528;-71
2022/06/24 00:38:22;;;;;;;;;4.00;4.00;;;;;24.90;51.18;100360.78;5054247;28;48472;-69
2022/06/24 00:40:54;;;;;;;;;4.33;4.00;;;;;24.87;50.97;100370.25;5039966;28;45454;-73
2022/06/24 00:43:36;;;;;;;;;6.00;4.00;;;;;24.74;51.07;100345.28;5040172;28;45463;-73
2022/06/24 00:46:16;;;;;;;;;4.00;4.00;;;;;24.46;51.31;100316.28;5037235;28;45311;-70
2022/06/24 00:48:47;;;;;;;;;5.67;5.00;;;;;24.52;51.48;100328.88;5039173;28;45949;-71
2022/06/24 00:51:13;;;;;;;;;5.33;5.00;;;;;24.53;51.38;100327.81;5039056;28;45270;-70
2022/06/24 00:53:40;;;;;;;;;2.67;2.67;;;;;24.24;50.97;100276.22;5038959;28;45286;-70
2022/06/24 00:56:08;;;;;;;;;4.00;4.00;;;;;24.75;51.18;100357.81;5039114;28;45418;-72
2022/06/24 00:58:34;;;;;;;;;3.00;3.00;;;;;24.43;50.33;100298.59;5038745;28;45360;-69
2022/06/24 01:01:00;;;;;;;;;5.67;4.00;;;;;24.61;50.93;100337.44;5038819;28;45562;-70
2022/06/24 01:03:42;;;;;;;;;4.33;4.33;;;;;24.77;50.46;100375.50;5038916;28;45592;-72
2022/06/24 01:06:08;;;;;;;;;4.00;3.00;;;;;24.60;50.40;100347.50;5030529;28;45435;-71
2022/06/24 01:08:34;;;;;;;;;5.33;5.33;;;;;24.51;50.40;100333.50;5018610;28;46601;-69
2022/06/24 01:10:59;;;;;;;;;4.00;4.00;;;;;24.16;50.56;100278.50;5018606;28;45298;-73
2022/06/24 01:13:25;;;;;;;;;3.67;3.67;;;;;23.18;50.09;100125.75;5017291;28;45538;-71
2022/06/24 01:15:50;;;;;;;;;4.33;3.67;;;;;24.19;49.68;100275.28;5020876;28;45551;-72
2022/06/24 01:18:16;;;;;;;;;5.00;5.00;;;;;24.65;49.79;100346.78;5025371;28;45587;-71
2022/06/24 01:20:42;;;;;;;;;3.67;3.67;;;;;24.70;49.62;100355.00;5038503;28;45567;-72
2022/06/24 01:23:07;;;;;;;;;5.67;3.67;;;;;24.46;49.70;100336.13;5038682;28;45212;-71
2022/06/24 01:25:32;;;;;;;;;5.00;3.33;;;;;24.33;50.11;100301.09;5048749;28;45442;-73
2022/06/24 01:27:59;;;;;;;;;4.67;4.67;;;;;23.72;50.06;100213.09;5019604;28;46902;-72
2022/06/24 01:30:25;;;;;;;;;3.67;3.67;;;;;24.50;50.39;100348.16;5018421;28;45524;-70
2022/06/24 01:32:50;;;;;;;;;4.33;4.33;;;;;24.48;50.21;100357.63;5034674;28;45529;-73
2022/06/24 01:35:15;;;;;;;;;3.33;3.33;;;;;24.53;50.55;100377.56;5019062;28;45455;-70
2022/06/24 01:37:41;;;;;;;;;6.67;4.00;;;;;24.51;50.78;100373.44;5017287;28;47979;-72
2022/06/24 01:40:08;;;;;;;;;4.00;4.00;;;;;24.49;51.01;100384.56;5033481;28;45380;-71
2022/06/24 01:42:34;;;;;;;;;3.67;3.67;;;;;24.46;51.50;100381.50;5022331;28;45482;-70
2022/06/24 01:44:59;;;;;;;;;4.67;4.00;;;;;24.39;51.67;100380.81;5038118;28;45512;-71
2022/06/24 01:47:25;;;;;;;;;5.00;5.00;;;;;24.35;53.43;100385.91;5037974;28;45368;-71
2022/06/24 01:49:50;;;;;;;;;6.00;6.00;;;;;24.31;55.21;100395.63;5038110;28;45315;-70
2022/06/24 01:52:15;;;;;;;;;4.00;4.00;;;;;23.90;56.72;100354.06;5036319;28;45363;-72
2022/06/24 01:54:41;;;;;;;;;8.00;8.00;;;;;24.10;57.95;100383.50;5018110;28;45528;-73
2022/06/24 01:57:07;;;;;;;;;4.00;4.00;;;;;23.53;58.44;100301.13;5017237;28;45670;-73
2022/06/24 01:59:32;;;;;;;;;6.00;5.00;;;;;24.02;58.75;100391.19;5016150;28;45339;-72
2022/06/24 02:01:58;;;;;;;;;5.00;5.00;;;;;23.68;59.11;100325.91;5017917;28;45290;-71
2022/06/24 02:04:23;;;;;;;;;4.67;4.67;;;;;23.67;60.04;100337.84;5035112;28;45526;-72
2022/06/24 02:06:49;;;;;;;;;6.00;6.00;;;;;23.95;59.38;100381.31;5037789;28;45768;-70
2022/06/24 02:09:16;;;;;;;;;2.67;2.67;;;;;23.94;60.23;100374.22;5036404;28;45288;-69
2022/06/24 02:14:26;;;;;;;;;5.00;5.00;;;;;23.80;60.23;100345.69;5020014;28;45488;-71
2022/06/24 02:16:52;;;;;;;;;6.00;5.00;;;;;23.88;60.36;100360.78;5016090;28;48455;-69
2022/06/24 02:19:17;;;;;;;;;7.67;5.67;;;;;23.81;59.92;100352.78;5017741;28;45204;-70
2022/06/24 02:21:43;;;;;;;;;5.00;4.00;;;;;23.49;59.30;100313.53;5017722;28;45332;-71
2022/06/24 02:24:08;;;;;;;;;4.00;4.00;;;;;23.68;59.34;100358.50;5032111;28;45429;-70
2022/06/24 02:26:34;;;;;;;;;5.33;4.67;;;;;23.50;59.20;100353.19;5035487;28;46781;-70
2022/06/24 02:28:59;;;;;;;;;4.33;4.33;;;;;23.73;59.84;100398.47;5037301;28;45285;-70
2022/06/24 02:31:25;;;;;;;;;5.00;5.00;;;;;23.55;60.15;100385.84;5030142;28;45422;-72
2022/06/24 02:33:50;;;;;;;;;4.67;4.00;;;;;23.45;60.60;100363.94;5017497;28;45463;-68
2022/06/24 02:36:16;;;;;;;;;4.00;4.00;;;;;23.55;59.44;100367.66;5017654;28;45721;-71
2022/06/24 02:38:42;;;;;;;;;4.00;4.00;;;;;22.96;59.47;100254.88;5018309;28;45187;-69
2022/06/24 02:41:08;;;;;;;;;4.67;4.67;;;;;23.47;59.67;100334.66;5021720;28;45272;-68
2022/06/24 02:43:35;;;;;;;;;5.00;3.00;;;;;23.53;59.87;100349.97;5037498;28;45322;-69
2022/06/24 02:46:05;;;;;;;;;3.00;3.00;;;;;23.47;58.78;100334.66;5037011;28;46923;-72
2022/06/24 02:48:34;;;;;;;;;3.33;2.33;;;;;23.45;58.63;100345.75;5037107;28;45396;-71
2022/06/24 02:51:01;;;;;;;;;2.67;2.67;;;;;23.43;59.45;100341.63;5032518;28;45304;-71
2022/06/24 02:53:28;;;;;;;;;4.00;4.00;;;;;23.41;59.58;100343.75;5032816;28;45324;-72
2022/06/24 02:55:56;;;;;;;;;6.67;4.33;;;;;23.42;60.37;100342.66;5016546;28;45688;-70
2022/06/24 02:58:21;;;;;;;;;4.00;4.00;;;;;23.43;59.99;100339.75;5017016;28;45459;-71
2022/06/24 03:00:47;;;;;;;;;5.00;4.00;;;;;22.91;60.16;100254.78;5018061;28;45618;-72
2022/06/24 03:03:17;;;;;;;;;4.67;4.67;;;;;23.41;60.54;100335.59;5037428;28;45460;-71
2022/06/24 03:05:43;;;;;;;;;4.67;4.00;;;;;23.38;59.44;100336.91;5036778;28;46408;-71
2022/06/24 03:08:10;;;;;;;;;4.33;4.00;;;;;23.41;60.30;100341.84;5037014;28;45463;-70
2022/06/24 03:10:36;;;;;;;;;2.67;2.67;;;;;23.38;59.94;100343.16;5038729;28;45403;-71
2022/06/24 03:13:01;;;;;;;;;4.33;3.00;;;;;23.35;60.37;100349.06;5039792;28;45542;-72
2022/06/24 03:15:27;;;;;;;;;4.67;4.67;;;;;23.37;60.88;100337.97;5055704;28;47867;-71
2022/06/24 03:17:52;;;;;;;;;5.33;5.33;;;;;23.11;60.15;100304.03;5039179;28;46237;-69
2022/06/24 03:20:17;;;;;;;;;4.67;4.00;;;;;22.89;59.92;100267.75;5029934;28;45527;-71
2022/06/24 03:22:43;;;;;;;;;4.67;3.67;;;;;23.30;60.73;100329.97;5019415;28;45273;-70
2022/06/24 03:25:09;;;;;;;;;5.67;5.67;;;;;23.32;60.51;100321.59;5020141;28;45826;-70
2022/06/24 03:27:35;;;;;;;;;3.67;3.67;;;;;23.18;60.09;100306.63;5020328;28;45437;-72
2022/06/24 03:30:00;;;;;;;;;4.00;4.00;;;;;22.48;60.80;100190.91;5027701;28;45582;-71
2022/06/24 03:32:26;;;;;;;;;6.00;4.00;;;;;23.27;60.14;100341.28;5040583;28;45201;-71
2022/06/24 03:34:51;;;;;;;;;3.00;3.00;;;;;23.25;60.32;100340.72;5039984;28;45663;-72
2022/06/24 03:37:17;;;;;;;;;3.67;3.67;;;;;22.97;60.64;100295.31;5040622;28;45288;-70
2022/06/24 03:39:42;;;;;;;;;4.00;4.00;;;;;22.63;61.44;100256.28;5021395;28;45779;-71
2022/06/24 03:42:08;;;;;;;;;4.00;3.33;;;;;23.06;61.67;100344.59;5020486;28;45294;-72
2022/06/24 03:44:33;;;;;;;;;5.00;4.00;;;;;23.03;61.90;100345.06;5018613;28;47890;-71
2022/06/24 03:47:01;;;;;;;;;4.00;4.00;;;;;23.00;61.02;100332.78;5020136;28;45549;-70
2022/06/24 03:49:26;;;;;;;;;5.00;4.67;;;;;23.01;62.08;100336.31;5036111;28;45368;-72
2022/06/24 03:51:52;;;;;;;;;5.00;5.00;;;;;22.92;61.54;100316.06;5055333;28;45590;-71
2022/06/24 03:54:17;;;;;;;;;4.00;4.00;;;;;22.98;61.68;100321.34;5039515;28;45466;-70
2022/06/24 03:56:42;;;;;;;;;5.67;5.67;;;;;22.96;62.16;100328.91;5040094;28;45514;-71
2022/06/24 03:59:08;;;;;;;;;3.00;3.00;;;;;22.66;62.09;100282.91;5023693;28;45284;-72
2022/06/24 04:01:33;;;;;;;;;6.00;5.00;;;;;22.87;62.00;100324.91;5049935;28;45271;-71
2022/06/24 04:03:58;;;;;;;;;4.00;4.00;;;;;22.42;61.92;100248.69;5039605;28;46301;-71
2022/06/24 04:06:24;;;;;;;;;5.33;5.33;;;;;22.75;62.41;100311.31;5039511;28;45202;-72
2022/06/24 04:08:51;;;;;;;;;6.67;6.67;;;;;22.55;62.38;100294.53;5039755;28;45298;-72
2022/06/24 04:11:17;;;;;;;;;5.00;5.00;;;;;22.44;62.70;100287.25;5037526;28;45655;-70
2022/06/24 04:13:43;;;;;;;;;4.00;4.00;;;;;22.66;62.72;100328.97;5038542;28;45993;-71
2022/06/24 04:16:09;;;;;;;;;5.00;5.00;;;;;22.55;62.07;100309.97;5039085;28;45241;-71
2022/06/24 04:18:35;;;;;;;;;8.00;8.00;;;;;22.56;62.65;100306.22;5039107;28;45328;-70
2022/06/24 04:21:01;;;;;;;;;4.33;4.33;;;;;22.67;62.47;100340.63;5032084;28;45395;-70
2022/06/24 04:23:27;;;;;;;;;6.67;6.00;;;;;22.41;62.25;100298.53;5019146;28;45535;-71
2022/06/24 04:25:53;;;;;;;;;4.00;4.00;;;;;22.54;62.49;100319.16;5018105;28;45401;-71
2022/06/24 04:28:18;;;;;;;;;5.67;5.67;;;;;22.61;62.61;100341.56;5019187;28;45228;-72
2022/06/24 04:30:44;;;;;;;;;6.00;6.00;;;;;22.28;62.82;100287.91;5019516;28;45206;-71
2022/06/24 04:33:09;;;;;;;;;6.33;6.33;;;;;22.54;62.84;100335.44;5019168;28;45737;-70
2022/06/24 04:35:35;;;;;;;;;5.67;5.00;;;;;22.36;63.16;100296.50;5019175;28;45331;-70
2022/06/24 04:38:01;;;;;;;;;5.33;4.00;;;;;22.66;63.12;100342.53;5019108;28;45389;-70
2022/06/24 04:40:26;;;;;;;;;5.33;5.33;;;;;22.72;63.20;100341.59;5019158;28;45240;-73
2022/06/24 04:42:52;;;;;;;;;4.00;4.00;;;;;22.30;62.89;100275.78;5038732;28;46393;-72
2022/06/24 04:45:17;;;;;;;;;4.00;4.00;;;;;22.33;63.13;100274.50;5038756;28;45414;-71
2022/06/24 04:47:43;;;;;;;;;7.00;5.00;;;;;22.70;62.88;100346.41;5039067;28;45269;-70
2022/06/24 04:50:09;;;;;;;;;4.00;4.00;;;;;22.22;63.00;100262.56;5039010;28;45371;-72
2022/06/24 04:52:36;;;;;;;;;5.00;5.00;;;;;22.69;63.10;100336.63;5021022;28;46733;-69
2022/06/24 04:55:02;;;;;;;;;4.33;4.33;;;;;22.63;62.99;100321.31;5018407;28;45409;-70
2022/06/24 04:57:28;;;;;;;;;5.00;5.00;;;;;22.63;62.52;100320.50;5023836;28;45435;-72
2022/06/24 04:59:53;;;;;;;;;4.00;4.00;;;;;22.28;62.66;100250.00;5037920;28;45539;-71
2022/06/24 05:02:19;;;;;;;;;6.00;5.00;;;;;22.77;62.09;100324.63;5039008;28;45221;-71
2022/06/24 05:04:44;;;;;;;;;5.00;4.67;;;;;22.60;61.95;100301.97;5044078;28;45299;-71
2022/06/24 05:07:09;;;;;;;;;5.00;5.00;;;;;22.52;62.21;100286.06;5055040;28;45482;-70
2022/06/24 05:09:35;;;;;;;;;7.00;6.00;;;;;22.54;61.96;100297.50;5019015;28;45232;-70
2022/06/24 05:12:01;;;;;;;;;7.33;7.00;;;;;22.81;62.52;100327.69;5016804;28;47259;-72
2022/06/24 05:14:27;;;;;;;;;5.33;5.33;;;;;22.89;61.91;100343.66;5033770;28;45436;-71
2022/06/24 05:16:53;;;;;;;;;3.67;3.67;;;;;22.73;61.99;100316.13;5037380;28;45292;-71
2022/06/24 05:19:18;;;;;;;;;10.00;10.00;;;;;22.80;61.61;100313.31;5038208;28;45491;-71
2022/06/24 05:21:44;;;;;;;;;5.00;5.00;;;;;22.94;61.67;100341.88;5022672;28;45619;-73
2022/06/24 05:24:09;;;;;;;;;3.33;3.33;;;;;22.94;61.39;100335.63;5016672;28;45608;-72
2022/06/24 05:26:34;;;;;;;;;5.00;5.00;;;;;22.68;61.41;100294.34;5018321;28;45460;-70
2022/06/24 05:29:00;;;;;;;;;7.00;5.00;;;;;22.68;61.67;100313.31;5033782;28;45468;-72
2022/06/24 05:31:25;;;;;;;;;6.00;6.00;;;;;22.89;61.50;100351.78;5017390;28;48346;-71
2022/06/24 05:33:51;;;;;;;;;5.00;5.00;;;;;22.90;61.48;100335.28;5017696;28;45449;-72
2022/06/24 05:36:16;;;;;;;;;6.00;6.00;;;;;22.98;61.36;100342.22;5017063;28;45398;-72
2022/06/24 05:38:42;;;;;;;;;4.67;4.67;;;;;23.07;61.09;100335.41;5018761;28;45289;-71
2022/06/24 05:41:08;;;;;;;;;5.00;5.00;;;;;22.97;60.88;100329.72;5035791;28;46298;-71
2022/06/24 05:43:33;;;;;;;;;7.33;6.00;;;;;23.03;60.63;100339.66;5037615;28;45261;-73
2022/06/24 05:45:59;;;;;;;;;10.33;5.33;;;;;23.18;60.57;100348.13;5037677;28;45745;-69
2022/06/24 05:48:24;;;;;;;;;6.67;6.67;;;;;23.21;60.16;100342.22;5038287;28;45183;-72
2022/06/24 05:50:49;;;;;;;;;6.33;5.00;;;;;23.18;59.95;100348.13;5035776;28;45655;-72
2022/06/24 05:56:00;;;;;;;;;4.67;4.67;;;;;23.22;59.68;100353.91;5037647;28;45392;-69
2022/06/24 05:58:27;;;;;;;;;8.33;6.00;;;;;22.98;59.41;100301.56;5036256;28;45253;-71
2022/06/24 06:00:54;;;;;;;;;7.67;7.67;;;;;23.16;59.63;100333.16;5035855;28;47431;-71
2022/06/24 06:03:23;;;;;;;;;7.00;5.33;;;;;23.38;59.23;100350.47;5019569;28;45675;-72
2022/06/24 06:05:49;;;;;;;;;8.00;7.00;;;;;23.32;59.09;100354.97;5017471;28;45274;-73
2022/06/24 06:08:15;;;;;;;;;7.00;6.00;;;;;22.99;58.91;100289.66;5017863;28;45240;-73
2022/06/24 06:10:43;;;;;;;;;4.00;4.00;;;;;22.73;58.40;100248.38;5017504;28;46373;-72
2022/06/24 06:13:08;;;;;;;;;4.00;4.00;;;;;23.36;57.78;100361.56;5022016;28;45610;-71
2022/06/24 06:15:34;;;;;;;;;3.00;3.00;;;;;23.30;58.25;100359.81;5032623;28;45278;-72
2022/06/24 06:18:01;;;;;;;;;5.00;5.00;;;;;23.16;57.57;100333.97;5016245;28;45575;-73
2022/06/24 06:20:27;;;;;;;;;8.33;8.33;;;;;23.19;57.89;100344.34;5016923;28;45653;-73
2022/06/24 06:22:53;;;;;;;;;10.33;8.33;;;;;23.41;58.21;100374.41;5018000;28;45479;-75
2022/06/24 06:25:18;;;;;;;;;3.67;3.67;;;;;23.33;57.96;100370.19;5017600;28;45608;-69
2022/06/24 06:27:44;;;;;;;;;13.33;11.33;;;;;23.35;58.04;100372.66;5028325;28;45424;-71
2022/06/24 06:30:11;;;;;;;;;4.33;4.33;;;;;23.42;58.20;100372.50;5036058;28;45919;-74
2022/06/24 06:32:36;;;;;;;;;7.33;7.33;;;;;22.84;57.57;100270.34;5020834;28;46636;-70
2022/06/24 06:35:03;;;;;;;;;5.00;5.00;;;;;23.43;57.64;100371.47;5035636;28;45364;-70
2022/06/24 06:37:28;;;;;;;;;5.00;5.00;;;;;23.48;57.81;100379.72;5028990;28;45380;-70
2022/06/24 06:39:54;;;;;;;;;6.67;6.67;;;;;23.51;57.72;100379.25;5015395;28;45489;-72
2022/06/24 06:42:19;;;;;;;;;6.67;4.00;;;;;23.36;57.87;100349.88;5015207;28;45349;-71
2022/06/24 06:44:45;;;;;;;;;10.00;7.00;;;;;23.28;58.14;100336.69;5016156;28;45257;-72
2022/06/24 06:47:10;;;;;;;;;5.33;5.33;;;;;23.37;58.00;100346.94;5015856;28;45546;-69
2022/06/24 06:49:35;;;;;;;;;6.00;6.00;;;;;23.60;57.56;100380.56;5012667;28;47575;-72
2022/06/24 06:52:02;;;;;;;;;5.00;5.00;;;;;23.27;57.27;100324.19;5016755;28;45403;-69
2022/06/24 06:54:27;;;;;;;;;6.00;6.00;;;;;23.69;57.06;100387.28;5016253;28;45400;-69
2022/06/24 06:56:52;;;;;;;;;6.00;5.00;;;;;23.57;56.59;100364.75;5016123;28;45486;-69
2022/06/24 06:59:18;;;;;;;;;7.67;6.00;;;;;23.61;56.52;100376.78;5015613;28;45849;-71
2022/06/24 07:01:43;;;;;;;;;5.67;5.67;;;;;23.69;56.74;100372.88;5016604;28;45344;-69
2022/06/24 07:04:08;;;;;;;;;3.33;3.33;;;;;23.80;56.08;100378.25;5032389;28;45898;-70
2022/06/24 07:06:34;;;;;;;;;6.33;6.33;;;;;23.87;55.38;100387.13;5032513;28;45491;-72
2022/06/24 07:08:59;;;;;;;;;8.67;6.67;;;;;23.95;56.43;100384.03;5025838;28;45960;-70
2022/06/24 07:11:25;;;;;;;;;13.00;13.00;;;;;23.48;56.17;100276.63;5015051;28;45952;-69
2022/06/24 07:13:51;;;;;;;;;5.00;5.00;;;;;23.55;55.50;100271.88;5016796;28;45277;-69
2022/06/24 07:16:16;;;;;;;;;7.00;5.00;;;;;24.25;54.91;100369.41;5017074;28;45385;-71
2022/06/24 07:18:41;;;;;;;;;5.67;4.67;;;;;24.09;54.55;100334.88;5015740;28;45477;-70
2022/06/24 07:21:07;;;;;;;;;6.00;6.00;;;;;23.41;54.66;100195.34;5015906;28;45190;-69
2022/06/24 07:23:32;;;;;;;;;6.00;5.00;;;;;23.91;54.28;100249.00;5015761;28;45549;-70
2022/06/24 07:25:58;;;;;;;;;6.00;5.00;;;;;24.75;53.36;100364.06;5016583;28;45428;-70
2022/06/24 07:28:25;;;;;;;;;5.00;5.00;;;;;24.86;53.17;100354.19;5015801;28;46650;-71
2022/06/24 07:30:51;;;;;;;;;4.33;3.00;;;;;24.84;52.38;100331.88;5028933;28;45503;-69
2022/06/24 07:33:16;;;;;;;;;6.67;5.33;;;;;24.99;52.04;100314.94;5012031;28;45721;-72
2022/06/24 07:35:41;;;;;;;;;3.33;3.33;;;;;25.28;50.99;100340.16;5011400;28;45965;-70
2022/06/24 07:38:07;;;;;;;;;11.00;11.00;;;;;25.75;50.79;100374.03;5015073;28;46395;-71
2022/06/24 07:40:32;;;;;;;;;3.67;3.67;;;;;25.61;49.67;100291.06;5028619;28;45333;-72
2022/06/24 07:42:58;;;;;;;;;5.33;4.00;;;;;26.16;49.45;100341.00;5051661;28;45266;-70
2022/06/24 07:45:23;;;;;;;;;4.00;4.00;;;;;26.38;48.73;100317.28;5023530;28;45519;-71
2022/06/24 07:47:49;;;;;;;;;5.00;4.00;;;;;27.12;47.32;100366.44;5035712;28;47010;-68
2022/06/24 07:50:14;;;;;;;;;4.00;4.00;;;;;27.37;46.66;100363.06;5015724;28;45282;-71
2022/06/24 07:52:39;;;;;;;;;4.00;4.00;;;;;27.57;46.60;100330.41;5016438;28;45445;-71
2022/06/24 07:57:49;;;;;;;;;5.00;5.00;;;;;28.11;44.50;100305.47;5021764;28;45511;-69
2022/06/24 08:00:14;;;;;;;;;3.33;3.33;;;;;28.59;43.59;100347.13;5038943;28;45400;-72
2022/06/24 08:02:40;;;;;;;;;3.00;3.00;;;;;28.69;42.14;100347.13;5037618;28;45383;-72
2022/06/24 08:05:06;;;;;;;;;4.00;3.67;;;;;28.72;42.35;100341.09;5035977;28;45448;-71
2022/06/24 08:07:31;;;;;;;;;3.00;3.00;;;;;28.65;41.49;100283.13;5024310;28;45819;-69
2022/06/24 08:09:57;;;;;;;;;3.67;3.67;;;;;29.16;41.49;100348.75;5034343;28;45316;-70
2022/06/24 08:12:22;;;;;;;;;7.00;5.00;;;;;28.53;40.86;100254.41;5022033;28;45344;-71
2022/06/24 08:14:47;;;;;;;;;3.67;3.67;;;;;28.88;41.46;100322.81;5019239;28;45357;-70
2022/06/24 08:17:13;;;;;;;;;5.00;4.00;;;;;28.97;41.78;100348.50;5017370;28;47976;-71
2022/06/24 08:19:38;;;;;;;;;7.00;6.00;;;;;28.36;41.42;100296.50;5018901;28;45337;-71
2022/06/24 08:22:04;;;;;;;;;4.00;4.00;;;;;28.41;42.37;100333.97;5018861;28;45931;-71
2022/06/24 08:24:29;;;;;;;;;5.33;5.33;;;;;28.04;42.33;100284.97;5031552;28;45356;-75
2022/06/24 08:26:55;;;;;;;;;7.00;7.00;;;;;28.43;41.17;100359.13;5028684;28;45669;-70
2022/06/24 08:29:20;;;;;;;;;4.67;4.67;;;;;27.90;42.36;100289.31;5031533;28;45480;-73
2022/06/24 08:31:45;;;;;;;;;4.33;3.67;;;;;28.04;42.79;100342.38;5036947;28;45352;-72
2022/06/24 08:34:11;;;;;;;;;4.00;4.00;;;;;27.68;42.66;100297.72;5025580;28;45431;-72
2022/06/24 08:36:37;;;;;;;;;12.00;10.00;;;;;27.99;42.87;100354.06;5021143;28;47514;-70
2022/06/24 08:39:03;;;;;;;;;6.00;6.00;;;;;28.21;43.07;100347.56;5023972;28;45487;-70
2022/06/24 08:41:28;;;;;;;;;7.00;6.67;;;;;28.81;41.49;100356.97;5025273;28;45344;-70
2022/06/24 08:43:56;;;;;;;;;4.67;3.33;;;;;28.39;40.32;100215.84;5017934;28;45662;-71
2022/06/24 08:46:22;;;;;;;;;3.33;3.33;;;;;29.54;39.47;100344.56;5028124;28;46341;-71
2022/06/24 08:48:49;;;;;;;;;3.33;3.33;;;;;29.16;38.14;100269.38;5026450;28;45455;-71
2022/06/24 08:51:15;;;;;;;;;2.67;2.67;;;;;29.34;37.72;100341.88;5036815;28;45460;-69
2022/06/24 08:53:43;;;;;;;;;3.00;3.00;;;;;28.91;37.87;100299.53;5037202;28;45547;-73
2022/06/24 08:56:09;;;;;;;;;2.67;2.67;;;;;29.10;37.88;100336.19;5025728;28;46367;-71
2022/06/24 08:58:35;;;;;;;;;3.00;3.00;;;;;29.21;38.02;100337.78;5021314;28;45467;-72
2022/06/24 09:01:01;;;;;;;;;2.00;2.00;;;;;29.00;37.55;100254.06;5037428;28;45337;-70
2022/06/24 09:03:27;;;;;;;;;1.00;0.00;;;;;29.87;37.34;100323.91;5038961;28;45466;-70
2022/06/24 09:05:53;;;;;;;;;3.00;3.00;;;;;30.31;36.38;100312.13;5038501;28;45743;-71
2022/06/24 09:08:19;;;;;;;;;5.00;3.33;;;;;30.92;35.17;100327.28;5037583;28;45490;-72
2022/06/24 09:13:31;;;;;;;;;2.00;2.00;;;;;32.41;33.27;100305.94;5028034;28;45690;-71
2022/06/24 09:16:06;;;;;;;;;4.00;4.00;;;;;33.32;31.60;100290.59;5034508;28;45297;-71
2022/06/24 09:18:32;;;;;;;;;2.00;1.67;;;;;33.91;30.38;100266.75;5016976;28;45923;-71
2022/06/24 09:20:57;;;;;;;;;1.00;1.00;;;;;34.31;29.75;100283.47;5028370;28;45505;-70
2022/06/24 09:23:23;;;;;;;;;1.33;1.33;;;;;35.33;28.98;100276.91;5018666;28;45171;-72
2022/06/24 09:25:54;;;;;;;;;2.00;2.00;;;;;36.40;27.21;100304.09;5017845;28;45728;-72
2022/06/24 09:28:28;;;;;;;;;3.33;2.67;;;;;35.97;26.64;100302.13;5033222;28;45408;-73
2022/06/24 09:31:02;;;;;;;;;3.00;3.00;;;;;35.87;27.04;100236.06;5018611;28;45499;-73
2022/06/24 09:33:27;;;;;;;;;2.67;2.33;;;;;36.25;26.43;100221.53;5025218;28;45545;-69
2022/06/24 09:36:01;;;;;;;;;3.00;3.00;;;;;36.16;26.26;100289.91;5022026;28;45351;-72
2022/06/24 09:38:26;;;;;;;;;1.00;1.00;;;;;35.49;27.07;100291.13;5019679;28;45517;-72
2022/06/24 09:41:10;;;;;;;;;;;;;;;;;;;;;
2022/06/24 09:43:36;;;;;;;;;6.00;6.00;;;;;34.79;27.38;100267.06;4996558;28;64911;-72
2022/06/24 09:46:01;;;;;;;;;1.33;1.00;;;;;35.25;27.43;100263.06;5029157;28;48231;-72
2022/06/24 09:48:30;;;;;;;;;1.00;1.00;;;;;35.95;26.22;100206.75;5012533;28;45345;-73
2022/06/24 09:51:06;;;;;;;;;1.67;1.67;;;;;37.26;24.08;100257.94;5017476;28;45328;-71
2022/06/24 09:53:37;;;;;;;;;1.00;1.00;;;;;38.05;23.39;100280.09;5016884;28;45431;-71
2022/06/24 09:56:08;;;;;;;;;1.67;1.67;;;;;38.72;22.81;100275.41;5015813;28;47606;-72
2022/06/24 09:58:34;;;;;;;;;1.67;1.00;;;;;39.44;22.41;100273.81;5017023;28;46070;-72
2022/06/24 10:01:00;;;;;;;;;2.00;2.00;;;;;39.69;20.51;100240.44;5013008;28;45270;-72
2022/06/24 10:03:27;;;;;;;;;1.00;1.00;;;;;39.54;20.93;100201.06;5015913;28;45646;-72
2022/06/24 10:05:52;;;;;;;;;1.00;1.00;;;;;39.31;21.13;100269.44;5030375;28;47608;-74
2022/06/24 10:08:20;;;;;;;;;1.00;1.00;;;;;38.88;22.04;100268.03;5030597;28;45553;-74
2022/06/24 10:10:45;;;;;;;;;0.33;0.33;;;;;37.96;22.48;100267.44;5029944;28;45372;-77
2022/06/24 10:13:22;;;;;;;;;2.00;1.00;;;;;36.83;23.56;100276.31;5052499;28;45447;-74
2022/06/24 10:15:48;;;;;;;;;2.00;0.00;;;;;35.60;24.44;100259.25;5036823;28;45511;-73
2022/06/24 10:18:15;;;;;;;;;2.00;2.00;;;;;34.62;26.34;100265.00;5052276;28;45284;-75
2022/06/24 10:20:50;;;;;;;;;0.00;0.00;;;;;33.11;27.50;100165.38;5052067;28;45470;-76
2022/06/24 10:23:43;;;;;;;;;2.00;1.00;;;;;32.93;28.13;100267.09;5053041;28;45531;-73
2022/06/24 10:26:15;;;;;;;;;0.67;0.67;;;;;32.34;29.58;100276.91;5036974;28;45369;-73
2022/06/24 10:28:59;;;;;;;;;1.00;1.00;;;;;31.86;30.28;100268.00;5052776;28;45430;-72
2022/06/24 10:31:45;;;;;;;;;1.33;1.00;;;;;31.34;30.72;100257.94;5037175;28;45342;-71
2022/06/24 10:34:32;;;;;;;;;2.00;2.00;;;;;30.24;31.89;100141.63;5037319;28;45303;-74
2022/06/24 10:37:01;;;;;;;;;4.33;4.00;;;;;30.80;32.64;100268.09;5036803;28;46618;-70
2022/06/24 10:39:29;;;;;;;;;1.00;1.00;;;;;30.39;32.67;100229.22;5052613;28;45255;-74
2022/06/24 10:42:00;;;;;;;;;1.67;1.67;;;;;30.55;32.84;100263.66;5035501;28;45494;-73
2022/06/24 10:44:30;;;;;;;;;2.00;2.00;;;;;30.46;33.18;100259.09;5037226;28;45391;-71
2022/06/24 10:47:04;;;;;;;;;4.00;3.00;;;;;29.78;34.12;100179.53;5038539;28;45740;-73
2022/06/24 10:49:51;;;;;;;;;1.33;1.33;;;;;29.96;34.46;100261.88;5037881;28;45379;-73
2022/06/24 10:52:35;;;;;;;;;0.00;0.00;;;;;29.71;33.82;100264.78;5052918;28;45361;-72
2022/06/24 10:55:20;;;;;;;;;2.67;2.00;;;;;28.87;34.69;100153.44;5036941;28;45433;-73
2022/06/24 10:57:47;;;;;;;;;3.67;2.33;;;;;29.51;34.75;100259.41;5036637;28;46441;-73
2022/06/24 11:00:14;;;;;;;;;2.00;2.00;;;;;29.52;34.99;100244.63;5052516;28;45296;-73
2022/06/24 11:02:40;;;;;;;;;2.00;2.00;;;;;29.47;35.09;100255.59;5052292;28;45486;-71
2022/06/24 11:05:10;;;;;;;;;1.00;1.00;;;;;29.21;35.65;100222.78;5036944;28;45293;-73
2022/06/24 11:07:43;;;;;;;;;1.67;1.67;;;;;29.21;34.93;100233.75;5036574;28;46429;-71
2022/06/24 11:10:47;;;;;;;;;0.50;0.50;;;;;28.99;34.76;100225.88;5036949;28;45323;-71
2022/06/24 11:13:13;;;;;;;;;1.00;1.00;;;;;28.61;35.10;100185.47;5040514;28;45741;-70
2022/06/24 11:15:38;;;;;;;;;1.00;1.00;;;;;28.85;35.24;100256.84;5037028;28;45424;-72
2022/06/24 11:18:11;;;;;;;;;1.00;1.00;;;;;28.74;35.29;100256.03;5036567;28;45542;-72
2022/06/24 11:20:45;;;;;;;;;3.00;3.00;;;;;28.56;35.67;100249.19;5036647;28;45187;-73
2022/06/24 11:23:13;;;;;;;;;1.00;1.00;;;;;28.45;36.17;100258.53;5037078;28;45309;-72
2022/06/24 11:25:44;;;;;;;;;2.67;1.00;;;;;28.03;36.17;100213.09;5037006;28;45553;-74
2022/06/24 11:28:23;;;;;;;;;1.00;1.00;;;;;28.28;36.72;100219.69;5036684;28;46105;-71
2022/06/24 11:30:50;;;;;;;;;1.00;1.00;;;;;27.62;36.14;100113.03;5036998;28;46723;-70
2022/06/24 11:33:16;;;;;;;;;1.67;1.67;;;;;28.53;35.69;100254.41;5055682;28;45423;-74
2022/06/24 11:35:41;;;;;;;;;2.00;2.00;;;;;28.57;36.37;100250.84;5055411;28;45354;-72
2022/06/24 11:38:09;;;;;;;;;2.00;2.00;;;;;27.94;36.82;100154.59;5040050;28;45558;-72